Time;durP1;ratioP1;P1;durP2;ratioP2;P2;SDS_P1;SDS_P2;PMS_P1;PMS_P2;Temp;Humidity;BMP_temperature;BMP_pressure;BME280_temperature;BME280_humidity;BME280_pressure;Samples;Min_cycle;Max_cycle;Signal;HPM_P1;HPM_P2
2023/08/19 00:02:23;;;;;;;3.67;2.13;;;22.70;99.90;;;;;;5014443;28;20033;-41
2023/08/19 00:04:49;;;;;;;4.43;1.90;;;22.60;99.90;;;;;;5014422;28;20034;-37
2023/08/19 00:07:15;;;;;;;3.47;1.73;;;22.60;99.90;;;;;;5014628;28;20022;-43
2023/08/19 00:09:41;;;;;;;4.38;1.75;;;22.70;99.90;;;;;;5014094;28;20104;-42
2023/08/19 00:12:06;;;;;;;5.43;1.73;;;22.70;99.90;;;;;;4996748;28;20110;-43
2023/08/19 00:14:32;;;;;;;2.28;1.90;;;22.70;99.90;;;;;;5014395;28;20100;-40
2023/08/19 00:16:58;;;;;;;3.13;1.67;;;22.70;99.90;;;;;;5014113;28;20467;-46
2023/08/19 00:19:24;;;;;;;2.10;1.70;;;22.70;99.90;;;;;;5013937;28;20022;-40
2023/08/19 00:21:49;;;;;;;3.70;2.00;;;22.70;99.90;;;;;;5014439;28;20036;-37
2023/08/19 00:24:15;;;;;;;4.57;1.77;;;22.60;99.90;;;;;;5014353;28;20030;-39
2023/08/19 00:26:41;;;;;;;3.83;1.88;;;22.60;99.90;;;;;;5014107;28;20084;-41
2023/08/19 00:29:06;;;;;;;6.55;1.77;;;22.60;99.90;;;;;;5013672;28;20025;-41
2023/08/19 00:31:32;;;;;;;3.30;2.10;;;22.60;99.90;;;;;;4996451;28;20018;-37
2023/08/19 00:33:58;;;;;;;2.00;1.75;;;22.60;99.90;;;;;;5013979;28;20025;-36
2023/08/19 00:36:25;;;;;;;4.15;1.90;;;22.60;99.90;;;;;;5014167;28;20494;-41
2023/08/19 00:38:51;;;;;;;2.40;1.77;;;22.60;99.90;;;;;;5013852;28;20025;-45
2023/08/19 00:41:18;;;;;;;5.43;2.17;;;22.60;99.90;;;;;;5013671;28;20026;-40
2023/08/19 00:43:44;;;;;;;2.88;1.70;;;22.60;99.90;;;;;;4996086;28;20065;-41
2023/08/19 00:46:09;;;;;;;2.40;1.60;;;22.60;99.90;;;;;;5013989;28;20076;-39
2023/08/19 00:48:36;;;;;;;4.65;1.98;;;22.60;99.90;;;;;;5013656;28;20024;-43
2023/08/19 00:51:02;;;;;;;4.13;1.70;;;22.60;99.90;;;;;;5013419;28;20026;-42
2023/08/19 00:53:28;;;;;;;2.97;1.88;;;22.60;99.90;;;;;;5013584;28;20407;-43
2023/08/19 00:55:54;;;;;;;3.15;1.83;;;22.60;99.90;;;;;;5013478;28;20463;-39
2023/08/19 00:58:20;;;;;;;4.22;1.90;;;22.60;99.90;;;;;;5013623;28;20036;-41
2023/08/19 01:00:47;;;;;;;5.22;1.60;;;22.60;99.90;;;;;;5013043;28;20451;-37
2023/08/19 01:03:12;;;;;;;4.00;2.10;;;22.60;99.90;;;;;;5013388;28;20029;-37
2023/08/19 01:06:01;;;;;;;2.83;1.90;;;22.60;99.90;;;;;;5013337;28;20022;-40
2023/08/19 01:08:42;;;;;;;3.10;1.83;;;22.60;99.90;;;;;;5012370;28;20113;-40
2023/08/19 01:11:32;;;;;;;4.78;1.58;;;22.60;99.90;;;;;;5012995;28;20022;-39
2023/08/19 01:14:19;;;;;;;3.47;2.00;;;22.60;99.90;;;;;;5013223;28;20123;-44
2023/08/19 01:16:48;;;;;;;3.40;2.00;;;22.60;99.90;;;;;;5013170;28;20022;-40
2023/08/19 01:19:22;;;;;;;3.42;1.92;;;22.60;99.90;;;;;;5012778;28;20022;-36
2023/08/19 01:21:52;;;;;;;6.28;1.63;;;22.60;99.90;;;;;;5013015;28;20014;-36
2023/08/19 01:24:20;;;;;;;3.38;1.95;;;22.60;99.90;;;;;;5013029;28;20116;-41
2023/08/19 01:26:46;;;;;;;3.00;1.70;;;22.60;99.90;;;;;;5012910;28;20408;-41
2023/08/19 01:29:12;;;;;;;4.05;2.10;;;22.50;99.90;;;;;;5012585;28;20026;-39
2023/08/19 01:31:37;;;;;;;5.90;1.80;;;22.60;99.90;;;;;;5012877;28;20040;-37
2023/08/19 01:34:03;;;;;;;5.10;2.20;;;22.50;99.90;;;;;;5012637;28;20036;-36
2023/08/19 01:36:37;;;;;;;3.08;1.85;;;22.50;99.90;;;;;;5012802;28;20061;-47
2023/08/19 01:39:06;;;;;;;;;;;22.50;99.90;;;;;;5013232;28;20051;-36
2023/08/19 01:41:33;;;;;;;2.92;1.80;;;22.60;99.90;;;;;;5012677;28;19905;-38
2023/08/19 01:44:00;;;;;;;3.50;1.90;;;22.60;99.90;;;;;;5012669;28;20037;-39
2023/08/19 01:46:26;;;;;;;4.90;1.60;;;22.60;99.90;;;;;;5012628;28;20270;-40
2023/08/19 01:48:52;;;;;;;3.30;1.88;;;22.50;99.90;;;;;;5012304;28;20026;-39
2023/08/19 01:51:17;;;;;;;4.28;1.85;;;22.60;99.90;;;;;;4995101;28;20022;-36
2023/08/19 01:53:43;;;;;;;4.90;2.42;;;22.50;99.90;;;;;;5012501;28;20056;-39
2023/08/19 01:56:11;;;;;;;2.28;1.95;;;22.50;99.90;;;;;;5012432;28;20044;-39
2023/08/19 01:58:37;;;;;;;5.28;1.95;;;22.50;99.90;;;;;;5012410;28;20554;-40
2023/08/19 02:01:03;;;;;;;4.65;1.95;;;22.50;99.90;;;;;;5012105;28;20113;-40
2023/08/19 02:03:29;;;;;;;3.38;1.90;;;22.50;99.90;;;;;;5012293;28;20091;-39
2023/08/19 02:05:54;;;;;;;3.45;2.00;;;22.50;99.90;;;;;;5012218;28;20049;-40
2023/08/19 02:08:20;;;;;;;6.88;2.10;;;22.50;99.90;;;;;;5012233;28;20022;-39
2023/08/19 02:10:46;;;;;;;3.13;1.90;;;22.50;99.90;;;;;;5012346;28;20021;-40
2023/08/19 02:13:11;;;;;;;3.17;1.70;;;22.50;99.90;;;;;;5012464;28;20111;-39
2023/08/19 02:15:37;;;;;;;6.07;2.20;;;22.50;99.90;;;;;;5012060;28;20022;-41
2023/08/19 02:18:03;;;;;;;3.45;2.22;;;22.50;99.90;;;;;;5012033;28;20391;-42
2023/08/19 02:20:29;;;;;;;7.78;1.90;;;22.50;99.90;;;;;;5011666;28;20037;-40
2023/08/19 02:22:54;;;;;;;6.32;1.75;;;22.50;99.90;;;;;;5012188;28;20034;-41
2023/08/19 02:25:20;;;;;;;5.50;1.92;;;22.50;99.90;;;;;;5011855;28;20096;-37
2023/08/19 02:27:46;;;;;;;4.40;2.17;;;22.50;99.90;;;;;;5011902;28;20053;-43
2023/08/19 02:30:12;;;;;;;2.97;1.98;;;22.50;99.90;;;;;;5011450;28;20036;-41
2023/08/19 02:32:40;;;;;;;3.30;1.95;;;22.50;99.90;;;;;;5011745;28;20514;-40
2023/08/19 02:35:06;;;;;;;4.25;1.90;;;22.50;99.90;;;;;;5011850;28;20068;-40
2023/08/19 02:37:32;;;;;;;4.90;1.90;;;22.50;99.90;;;;;;5011759;28;20026;-38
2023/08/19 02:39:58;;;;;;;4.68;1.80;;;22.50;99.90;;;;;;5011409;28;20030;-40
2023/08/19 02:42:23;;;;;;;2.42;1.75;;;22.50;99.90;;;;;;5011750;28;20117;-39
2023/08/19 02:44:49;;;;;;;6.65;1.60;;;22.50;99.90;;;;;;5011495;28;20116;-38
2023/08/19 02:47:14;;;;;;;4.03;1.90;;;22.50;99.90;;;;;;5011833;28;20022;-39
2023/08/19 02:49:40;;;;;;;5.03;2.30;;;22.50;99.90;;;;;;5011362;28;20069;-40
2023/08/19 02:52:06;;;;;;;5.63;1.90;;;22.50;99.90;;;;;;5011745;28;20065;-43
2023/08/19 02:54:31;;;;;;;4.20;1.90;;;22.50;99.90;;;;;;5011559;28;20030;-39
2023/08/19 02:56:57;;;;;;;2.47;1.90;;;22.50;99.90;;;;;;4993956;28;20384;-41
2023/08/19 02:59:23;;;;;;;2.30;1.70;;;22.50;99.90;;;;;;5011710;28;20108;-43
2023/08/19 03:01:48;;;;;;;4.22;2.10;;;22.40;99.90;;;;;;5011583;28;20072;-44
2023/08/19 03:04:14;;;;;;;3.33;1.90;;;22.50;99.90;;;;;;5011514;28;20025;-41
2023/08/19 03:06:41;;;;;;;6.30;2.00;;;22.50;99.90;;;;;;5011528;28;20507;-41
2023/08/19 03:09:07;;;;;;;3.78;1.88;;;22.50;99.90;;;;;;5011113;28;20018;-39
2023/08/19 03:11:33;;;;;;;4.15;1.63;;;22.40;99.90;;;;;;5011489;28;20031;-37
2023/08/19 03:13:59;;;;;;;3.08;1.70;;;22.40;99.90;;;;;;5011353;28;20110;-40
2023/08/19 03:16:25;;;;;;;3.53;1.85;;;22.40;99.90;;;;;;5011286;28;20500;-40
2023/08/19 03:18:50;;;;;;;4.65;2.35;;;22.50;99.90;;;;;;5011489;28;20026;-42
2023/08/19 03:21:16;;;;;;;3.42;1.80;;;22.50;99.90;;;;;;5011165;28;20520;-41
2023/08/19 03:23:41;;;;;;;4.13;2.00;;;22.40;99.90;;;;;;5011241;28;20104;-47
2023/08/19 03:26:07;;;;;;;3.70;1.95;;;22.50;99.90;;;;;;5011165;28;20495;-50
2023/08/19 03:28:33;;;;;;;4.60;2.42;;;22.40;99.90;;;;;;5011155;28;20057;-42
2023/08/19 03:30:58;;;;;;;5.75;1.98;;;22.40;99.90;;;;;;5010833;28;20042;-39
2023/08/19 03:33:24;;;;;;;2.95;1.92;;;22.40;99.90;;;;;;5015109;28;20026;-39
2023/08/19 03:35:49;;;;;;;2.90;1.90;;;22.40;99.90;;;;;;5052578;23;20605;-39
2023/08/19 03:38:15;;;;;;;3.88;1.85;;;22.40;99.90;;;;;;5015191;28;20037;-39
2023/08/19 03:40:41;;;;;;;7.13;2.20;;;22.40;99.90;;;;;;5014766;28;20042;-39
2023/08/19 03:43:08;;;;;;;6.45;1.85;;;22.40;99.90;;;;;;5014900;28;20026;-41
2023/08/19 03:45:34;;;;;;;2.35;1.73;;;22.40;99.90;;;;;;5014826;28;20113;-38
2023/08/19 03:48:00;;;;;;;3.33;1.88;;;22.40;99.90;;;;;;5014821;28;20453;-38
2023/08/19 03:50:25;;;;;;;3.30;1.85;;;22.40;99.90;;;;;;5014613;28;20034;-39
2023/08/19 03:52:51;;;;;;;3.50;2.05;;;22.40;99.90;;;;;;5014785;28;20018;-40
2023/08/19 03:55:17;;;;;;;2.53;1.80;;;22.40;99.90;;;;;;5014777;28;20026;-39
2023/08/19 03:57:42;;;;;;;4.65;2.10;;;22.40;99.90;;;;;;5014623;28;20034;-38
2023/08/19 04:00:09;;;;;;;3.15;2.03;;;22.40;99.90;;;;;;5014471;28;20041;-38
2023/08/19 04:02:35;;;;;;;4.15;1.60;;;22.40;99.90;;;;;;5014581;28;20047;-39
2023/08/19 04:05:03;;;;;;;3.58;1.88;;;22.40;99.90;;;;;;5014539;28;20083;-38
2023/08/19 04:07:28;;;;;;;2.53;1.92;;;22.40;99.90;;;;;;5014474;28;20025;-38
2023/08/19 04:09:55;;;;;;;5.50;1.90;;;22.40;99.90;;;;;;5014306;28;20018;-39
2023/08/19 04:12:22;;;;;;;4.18;1.90;;;22.40;99.90;;;;;;5014556;28;20402;-39
2023/08/19 04:14:48;;;;;;;3.58;1.75;;;22.40;99.90;;;;;;5014366;28;20515;-38
2023/08/19 04:17:13;;;;;;;5.43;1.95;;;22.40;99.90;;;;;;5014136;28;20125;-38
2023/08/19 04:19:39;;;;;;;3.15;1.70;;;22.30;99.90;;;;;;5014068;28;20028;-38
2023/08/19 04:22:04;;;;;;;4.40;2.10;;;22.40;99.90;;;;;;5014336;28;20025;-39
2023/08/19 04:24:32;;;;;;;4.25;2.17;;;22.30;99.90;;;;;;5012794;28;20029;-38
2023/08/19 04:27:00;;;;;;;3.45;1.80;;;22.40;99.90;;;;;;5014089;28;20018;-38
2023/08/19 04:29:27;;;;;;;3.42;2.03;;;22.40;99.90;;;;;;5013869;28;20026;-38
2023/08/19 04:31:52;;;;;;;5.35;1.88;;;22.40;99.90;;;;;;5013999;28;20391;-38
2023/08/19 04:34:18;;;;;;;4.40;1.90;;;22.30;99.90;;;;;;5014149;28;20471;-39
2023/08/19 04:36:43;;;;;;;9.50;2.00;;;22.30;99.90;;;;;;5013878;28;20037;-39
2023/08/19 04:39:09;;;;;;;3.97;2.30;;;22.30;99.90;;;;;;5013688;28;20363;-39
2023/08/19 04:41:35;;;;;;;4.32;2.03;;;22.30;99.90;;;;;;5013865;28;20254;-39
2023/08/19 04:44:00;;;;;;;7.68;2.10;;;22.30;99.90;;;;;;5012676;28;20032;-38
2023/08/19 04:46:26;;;;;;;3.00;1.88;;;22.30;99.90;;;;;;5013450;28;20022;-38
2023/08/19 04:48:51;;;;;;;3.50;1.70;;;22.30;99.90;;;;;;5013649;28;20022;-38
2023/08/19 04:51:17;;;;;;;2.70;1.70;;;22.30;99.90;;;;;;5013710;28;20405;-38
2023/08/19 04:53:43;;;;;;;4.47;1.92;;;22.30;99.90;;;;;;5013845;28;20541;-38
2023/08/19 04:56:08;;;;;;;6.25;2.33;;;22.30;99.90;;;;;;5013647;28;20030;-39
2023/08/19 04:58:35;;;;;;;5.00;1.80;;;22.30;99.90;;;;;;5013491;28;20033;-38
2023/08/19 05:01:00;;;;;;;5.25;1.80;;;22.30;99.90;;;;;;5013153;28;20030;-38
2023/08/19 05:03:26;;;;;;;3.72;1.83;;;22.30;99.90;;;;;;5013405;28;20387;-39
2023/08/19 05:05:52;;;;;;;3.20;1.80;;;22.30;99.90;;;;;;5013216;28;20060;-39
2023/08/19 05:08:17;;;;;;;2.42;1.70;;;22.30;99.90;;;;;;5013708;28;20329;-39
2023/08/19 05:10:43;;;;;;;4.43;1.90;;;22.30;99.90;;;;;;5013048;28;20419;-39
2023/08/19 05:13:09;;;;;;;6.20;2.10;;;22.30;99.90;;;;;;5013301;28;20112;-39
2023/08/19 05:15:35;;;;;;;2.85;2.00;;;22.30;99.90;;;;;;5013002;28;20478;-38
2023/08/19 05:18:01;;;;;;;3.53;2.10;;;22.30;99.90;;;;;;5013235;28;20033;-38
2023/08/19 05:20:27;;;;;;;5.20;2.03;;;22.30;99.90;;;;;;5013012;28;20022;-38
2023/08/19 05:22:52;;;;;;;3.50;1.98;;;22.30;99.90;;;;;;5011844;28;20029;-38
2023/08/19 05:25:18;;;;;;;3.83;2.10;;;22.30;99.90;;;;;;5013101;28;20442;-38
2023/08/19 05:27:44;;;;;;;3.63;2.08;;;22.30;99.90;;;;;;5012981;28;20061;-38
2023/08/19 05:30:10;;;;;;;3.05;2.03;;;22.30;99.90;;;;;;5012643;28;20022;-38
2023/08/19 05:32:35;;;;;;;2.83;1.83;;;22.30;99.90;;;;;;5012883;28;20033;-39
2023/08/19 05:35:01;;;;;;;3.10;1.90;;;22.30;99.90;;;;;;5012858;28;20030;-39
2023/08/19 05:37:26;;;;;;;2.85;1.83;;;22.30;99.90;;;;;;5012697;28;20085;-39
2023/08/19 05:39:52;;;;;;;2.53;1.80;;;22.30;99.90;;;;;;5012682;28;20030;-39
2023/08/19 05:42:18;;;;;;;2.67;2.00;;;22.30;99.90;;;;;;5012714;28;20386;-38
2023/08/19 05:44:43;;;;;;;2.15;1.85;;;22.30;99.90;;;;;;5012435;28;20033;-38
2023/08/19 05:47:09;;;;;;;3.65;2.10;;;22.30;99.90;;;;;;5012599;28;20076;-39
2023/08/19 05:49:35;;;;;;;2.13;1.65;;;22.30;99.90;;;;;;5012398;28;20029;-38
2023/08/19 05:52:01;;;;;;;3.03;1.80;;;22.30;99.90;;;;;;5012737;28;20029;-38
2023/08/19 05:54:26;;;;;;;4.03;1.95;;;22.30;99.90;;;;;;5012149;28;20028;-38
2023/08/19 05:56:52;;;;;;;2.92;1.80;;;22.30;99.90;;;;;;5012363;28;20026;-38
2023/08/19 05:59:17;;;;;;;2.50;1.80;;;22.30;99.90;;;;;;5012106;28;20498;-38
2023/08/19 06:01:43;;;;;;;7.80;2.10;;;22.30;99.90;;;;;;5012374;28;20398;-38
2023/08/19 06:04:09;;;;;;;4.90;1.75;;;22.30;99.90;;;;;;5012216;28;20030;-39
2023/08/19 06:06:34;;;;;;;2.38;1.95;;;22.30;99.90;;;;;;5012125;28;20427;-39
2023/08/19 06:09:00;;;;;;;2.58;1.85;;;22.30;99.90;;;;;;5012071;28;20037;-40
2023/08/19 06:11:26;;;;;;;6.90;2.10;;;22.30;99.90;;;;;;5012147;28;20486;-38
2023/08/19 06:13:52;;;;;;;3.38;1.83;;;22.30;99.90;;;;;;5012073;28;20048;-38
2023/08/19 06:16:18;;;;;;;5.15;1.90;;;22.30;99.90;;;;;;5012143;28;20034;-38
2023/08/19 06:18:44;;;;;;;2.72;1.88;;;22.30;99.90;;;;;;5012102;28;20033;-38
2023/08/19 06:21:09;;;;;;;3.70;2.10;;;22.30;99.90;;;;;;5011920;28;20026;-38
2023/08/19 06:23:35;;;;;;;4.72;2.15;;;22.20;99.90;;;;;;5012024;28;20479;-38
2023/08/19 06:26:01;;;;;;;3.22;2.20;;;22.30;99.90;;;;;;5011837;28;20030;-40
2023/08/19 06:28:26;;;;;;;2.90;1.73;;;22.30;99.90;;;;;;5011795;28;20030;-38
2023/08/19 06:30:52;;;;;;;2.20;1.90;;;22.30;99.90;;;;;;5011763;28;20032;-38
2023/08/19 06:33:19;;;;;;;3.22;2.03;;;22.30;99.90;;;;;;5012082;28;20026;-38
2023/08/19 06:35:49;;;;;;;8.93;3.65;;;22.30;99.90;;;;;;5010523;28;20029;-38
2023/08/19 06:38:20;;;;;;;12.80;3.60;;;22.20;99.90;;;;;;5012009;28;20049;-39
2023/08/19 06:41:05;;;;;;;8.82;3.28;;;22.20;99.90;;;;;;5011832;28;20034;-38
2023/08/19 06:43:32;;;;;;;7.75;3.42;;;22.20;99.90;;;;;;5011889;28;20506;-40
2023/08/19 06:45:59;;;;;;;5.40;3.05;;;22.20;99.90;;;;;;5011755;28;20482;-38
2023/08/19 06:48:25;;;;;;;9.18;3.50;;;22.30;99.90;;;;;;5011736;28;20022;-38
2023/08/19 06:50:54;;;;;;;6.40;3.53;;;22.30;99.90;;;;;;5011713;28;20056;-38
2023/08/19 06:53:21;;;;;;;7.82;2.75;;;22.30;99.90;;;;;;5011758;28;20076;-38
2023/08/19 06:56:03;;;;;;;7.93;3.22;;;22.30;99.90;;;;;;5011689;28;20037;-38
2023/08/19 06:58:32;;;;;;;7.57;3.10;;;22.30;99.90;;;;;;5011848;28;20029;-38
2023/08/19 07:01:02;;;;;;;7.70;3.13;;;22.30;99.90;;;;;;5011557;28;20097;-38
2023/08/19 07:03:30;;;;;;;7.95;3.40;;;22.30;99.90;;;;;;5011829;28;20022;-38
2023/08/19 07:05:58;;;;;;;9.95;3.05;;;22.30;99.90;;;;;;5011555;28;20030;-38
2023/08/19 07:08:27;;;;;;;7.50;2.75;;;22.30;99.90;;;;;;5015660;28;20025;-38
2023/08/19 07:10:53;;;;;;;5.22;2.78;;;22.30;99.90;;;;;;5015566;28;20098;-38
2023/08/19 07:13:18;;;;;;;5.28;2.50;;;22.40;99.90;;;;;;5015737;28;20117;-38
2023/08/19 07:15:51;;;;;;;6.82;3.08;;;22.40;99.90;;;;;;5016108;28;20080;-38
2023/08/19 07:18:20;;;;;;;6.70;2.83;;;22.40;99.90;;;;;;5016170;28;20030;-38
2023/08/19 07:20:48;;;;;;;4.53;2.60;;;22.40;99.90;;;;;;5015336;28;20030;-39
2023/08/19 07:23:15;;;;;;;5.82;2.95;;;22.40;99.90;;;;;;5015825;28;20455;-39
2023/08/19 07:25:42;;;;;;;6.00;2.78;;;22.40;99.90;;;;;;5015360;28;20103;-38
2023/08/19 07:28:11;;;;;;;5.72;2.65;;;22.40;99.90;;;;;;5015783;28;20034;-40
2023/08/19 07:30:37;;;;;;;4.38;2.50;;;22.50;99.90;;;;;;5015613;28;20474;-40
2023/08/19 07:33:04;;;;;;;10.20;3.22;;;22.50;99.90;;;;;;5015458;28;20509;-39
2023/08/19 07:35:29;;;;;;;9.00;3.20;;;22.60;99.90;;;;;;5015539;28;20022;-40
2023/08/19 07:37:55;;;;;;;14.75;3.42;;;22.60;99.90;;;;;;5015675;28;20045;-39
2023/08/19 07:40:21;;;;;;;5.68;2.90;;;22.60;99.90;;;;;;5015452;28;20052;-39
2023/08/19 07:42:46;;;;;;;6.63;3.10;;;22.60;99.90;;;;;;5015898;28;20390;-39
2023/08/19 07:45:12;;;;;;;5.03;2.92;;;22.60;99.90;;;;;;5015440;28;20034;-43
2023/08/19 07:47:38;;;;;;;7.75;3.38;;;22.60;99.90;;;;;;5013815;28;20034;-42
2023/08/19 07:50:04;;;;;;;7.15;3.08;;;22.60;99.90;;;;;;5015072;28;20041;-40
2023/08/19 07:52:29;;;;;;;15.55;3.25;;;22.60;99.90;;;;;;5015426;28;20025;-44
2023/08/19 07:54:56;;;;;;;5.43;2.88;;;22.60;99.90;;;;;;5015351;28;20022;-40
2023/08/19 07:57:22;;;;;;;5.95;2.88;;;22.60;99.90;;;;;;5015220;28;20025;-40
2023/08/19 07:59:47;;;;;;;6.35;2.85;;;22.70;99.90;;;;;;5014959;28;20030;-39
2023/08/19 08:02:13;;;;;;;5.22;2.85;;;22.60;99.90;;;;;;5015064;28;20465;-40
2023/08/19 08:04:40;;;;;;;4.97;2.80;;;22.60;99.90;;;;;;5015101;28;20038;-39
2023/08/19 08:07:06;;;;;;;4.47;2.72;;;22.60;99.90;;;;;;5014944;28;20067;-39
2023/08/19 08:09:32;;;;;;;4.43;2.65;;;22.70;99.90;;;;;;5014884;28;20022;-40
2023/08/19 08:11:58;;;;;;;4.28;2.42;;;22.70;99.90;;;;;;5014973;28;20076;-40
2023/08/19 08:14:24;;;;;;;8.20;3.05;;;22.70;99.90;;;;;;5013409;28;20053;-39
2023/08/19 08:16:50;;;;;;;4.03;2.70;;;22.70;99.90;;;;;;5014624;28;20097;-40
2023/08/19 08:19:16;;;;;;;5.40;2.42;;;22.70;99.90;;;;;;5014370;28;20068;-40
2023/08/19 08:21:42;;;;;;;4.75;2.50;;;22.70;99.90;;;;;;5014984;28;20126;-41
2023/08/19 08:24:07;;;;;;;5.20;2.67;;;22.70;99.90;;;;;;5014943;28;20088;-39
2023/08/19 08:26:33;;;;;;;6.47;2.55;;;22.80;99.90;;;;;;5014591;28;20076;-40
2023/08/19 08:28:59;;;;;;;5.28;2.85;;;22.70;99.90;;;;;;5014584;28;20093;-40
2023/08/19 08:31:24;;;;;;;4.75;2.28;;;22.70;99.90;;;;;;5014370;28;20018;-41
2023/08/19 08:33:50;;;;;;;4.43;2.45;;;22.70;99.90;;;;;;5014582;28;20407;-40
2023/08/19 08:36:15;;;;;;;3.60;2.65;;;22.70;99.90;;;;;;5013013;28;20049;-40
2023/08/19 08:38:41;;;;;;;3.85;2.22;;;22.70;99.90;;;;;;5014404;28;20026;-39
2023/08/19 08:41:09;;;;;;;4.72;2.50;;;22.70;99.90;;;;;;5014488;28;20065;-40
2023/08/19 08:43:36;;;;;;;3.28;2.28;;;22.80;99.90;;;;;;5014572;28;20037;-40
2023/08/19 08:46:02;;;;;;;4.38;2.40;;;22.80;99.90;;;;;;5014095;28;20026;-40
2023/08/19 08:48:31;;;;;;;5.25;2.22;;;22.80;99.90;;;;;;5014149;28;20025;-40
2023/08/19 08:50:58;;;;;;;4.05;2.50;;;22.80;99.90;;;;;;5014229;28;20061;-40
2023/08/19 08:53:27;;;;;;;4.85;2.50;;;22.80;99.90;;;;;;5014223;28;20045;-40
2023/08/19 08:55:54;;;;;;;3.70;2.20;;;22.80;99.90;;;;;;5014208;28;20025;-40
2023/08/19 08:58:20;;;;;;;3.20;2.10;;;22.80;99.90;;;;;;5014263;28;20026;-39
2023/08/19 09:00:48;;;;;;;3.72;2.50;;;22.80;99.90;;;;;;5013856;28;20042;-40
2023/08/19 09:03:25;;;;;;;5.43;2.70;;;22.80;99.90;;;;;;5014133;28;20065;-40
2023/08/19 09:05:55;;;;;;;6.45;2.53;;;22.80;99.90;;;;;;5014022;28;20117;-39
2023/08/19 09:08:33;;;;;;;3.80;2.65;;;22.80;99.90;;;;;;5013963;28;20022;-40
2023/08/19 09:11:00;;;;;;;4.07;2.28;;;22.80;99.90;;;;;;5013574;28;20391;-39
2023/08/19 09:13:26;;;;;;;3.88;2.38;;;22.80;99.90;;;;;;5013785;28;20080;-40
2023/08/19 09:15:52;;;;;;;2.90;2.10;;;22.80;99.90;;;;;;5012681;28;20317;-40
2023/08/19 09:18:18;;;;;;;4.55;2.40;;;22.80;99.90;;;;;;5013907;28;20108;-40
2023/08/19 09:20:44;;;;;;;3.28;2.20;;;22.80;99.90;;;;;;5013475;28;20021;-40
2023/08/19 09:23:10;;;;;;;2.88;2.17;;;22.80;99.90;;;;;;5013587;28;20028;-39
2023/08/19 09:25:39;;;;;;;3.38;2.40;;;22.80;99.90;;;;;;5013463;28;20030;-39
2023/08/19 09:28:05;;;;;;;5.03;2.40;;;22.80;99.90;;;;;;5013465;28;20079;-39
2023/08/19 09:30:34;;;;;;;3.95;2.30;;;22.80;99.90;;;;;;5012531;28;20026;-40
2023/08/19 09:33:00;;;;;;;5.78;2.15;;;22.80;99.90;;;;;;5013363;28;20089;-40
2023/08/19 09:35:36;;;;;;;3.85;2.53;;;22.90;99.90;;;;;;5013583;28;20044;-40
2023/08/19 09:38:02;;;;;;;4.85;2.20;;;22.90;99.90;;;;;;5036252;23;20057;-41
2023/08/19 09:40:27;;;;;;;5.57;2.17;;;22.90;99.90;;;;;;5012066;28;20018;-39
2023/08/19 09:42:56;;;;;;;4.38;2.05;;;22.90;99.90;;;;;;5012909;28;20045;-39
2023/08/19 09:45:27;;;;;;;3.88;2.30;;;22.90;99.90;;;;;;5012603;28;20037;-36
2023/08/19 09:47:54;;;;;;;2.92;2.05;;;22.90;99.90;;;;;;5012602;28;20044;-37
2023/08/19 09:50:23;;;;;;;5.38;2.20;;;22.90;99.90;;;;;;5012827;28;20041;-42
2023/08/19 09:52:56;;;;;;;3.88;2.17;;;22.90;99.90;;;;;;5012437;28;20025;-35
2023/08/19 09:55:23;;;;;;;5.05;1.90;;;22.90;99.90;;;;;;5012597;28;20044;-40
2023/08/19 09:57:49;;;;;;;4.60;2.10;;;22.90;99.90;;;;;;5012423;28;20030;-41
2023/08/19 10:00:15;;;;;;;3.28;2.30;;;22.90;99.90;;;;;;5012384;28;20030;-44
2023/08/19 10:02:41;;;;;;;3.00;1.90;;;22.90;99.90;;;;;;5012405;28;20030;-39
2023/08/19 10:05:07;;;;;;;3.20;2.05;;;23.00;99.90;;;;;;5012294;28;20026;-40
2023/08/19 10:07:33;;;;;;;4.75;2.20;;;22.90;99.90;;;;;;5012218;28;20088;-38
2023/08/19 10:10:04;;;;;;;6.55;2.20;;;22.90;99.90;;;;;;5012102;28;20030;-39
2023/08/19 10:12:35;;;;;;;3.53;1.90;;;23.00;99.90;;;;;;5012399;28;20110;-38
2023/08/19 10:15:03;;;;;;;3.17;2.10;;;23.00;99.90;;;;;;5012292;28;20037;-39
2023/08/19 10:17:32;;;;;;;4.95;2.30;;;23.00;99.90;;;;;;5012172;28;20509;-38
2023/08/19 10:20:05;;;;;;;3.13;1.90;;;23.00;99.90;;;;;;5011911;28;20108;-40
2023/08/19 10:22:34;;;;;;;3.92;2.28;;;23.00;99.90;;;;;;5012203;28;20025;-39
2023/08/19 10:25:01;;;;;;;2.75;2.00;;;23.00;99.90;;;;;;5011974;28;20434;-39
2023/08/19 10:27:27;;;;;;;3.97;1.98;;;23.00;99.90;;;;;;5011938;28;20050;-39
2023/08/19 10:29:57;;;;;;;3.05;2.08;;;23.00;99.90;;;;;;5011804;28;20533;-40
2023/08/19 10:32:30;;;;;;;2.63;1.95;;;23.00;99.90;;;;;;5011845;28;20096;-36
2023/08/19 10:35:08;;;;;;;2.57;1.93;;;23.00;99.90;;;;;;5011896;28;20029;-39
2023/08/19 10:37:45;;;;;;;2.80;2.03;;;23.00;99.90;;;;;;5011693;28;20517;-39
2023/08/19 10:40:13;;;;;;;5.22;2.13;;;23.00;99.90;;;;;;5011647;28;20072;-36
2023/08/19 10:42:39;;;;;;;3.22;2.35;;;23.00;99.90;;;;;;5011724;28;20026;-38
2023/08/19 10:45:17;;;;;;;2.80;1.80;;;23.00;99.90;;;;;;5011609;28;20029;-37
2023/08/19 10:47:43;;;;;;;8.27;2.22;;;23.00;99.90;;;;;;5011679;28;20061;-38
2023/08/19 10:50:10;;;;;;;4.03;1.77;;;23.00;99.90;;;;;;5011453;28;20033;-38
2023/08/19 10:53:03;;;;;;;3.95;2.10;;;23.00;99.90;;;;;;5011630;28;20475;-36
2023/08/19 10:55:54;;;;;;;3.03;2.05;;;23.00;99.90;;;;;;5011540;28;20036;-39
2023/08/19 10:58:22;;;;;;;2.42;1.73;;;23.10;99.90;;;;;;5011637;28;20387;-36
2023/08/19 11:00:48;;;;;;;2.72;1.88;;;23.10;99.90;;;;;;5011336;28;20025;-37
2023/08/19 11:03:15;;;;;;;4.25;2.20;;;23.00;99.90;;;;;;5011514;28;20036;-38
2023/08/19 11:05:48;;;;;;;3.78;2.00;;;23.10;99.90;;;;;;5011840;28;20026;-41
2023/08/19 11:08:14;;;;;;;3.55;1.98;;;23.10;99.90;;;;;;5011667;28;20030;-39
2023/08/19 11:10:40;;;;;;;3.00;2.22;;;23.10;99.90;;;;;;5011264;28;20028;-36
2023/08/19 11:13:06;;;;;;;2.42;1.90;;;23.10;99.90;;;;;;5011383;28;20423;-37
2023/08/19 11:15:32;;;;;;;4.05;2.35;;;23.10;99.90;;;;;;5011449;28;20018;-37
2023/08/19 11:17:58;;;;;;;4.18;2.03;;;23.10;99.90;;;;;;5011363;28;20113;-41
2023/08/19 11:20:28;;;;;;;4.28;2.00;;;23.10;99.90;;;;;;5011050;28;20092;-39
2023/08/19 11:22:55;;;;;;;4.05;2.15;;;23.10;99.90;;;;;;5011780;28;20460;-39
2023/08/19 11:25:21;;;;;;;3.35;2.10;;;23.10;99.90;;;;;;5011293;28;20037;-39
2023/08/19 11:27:47;;;;;;;4.18;2.00;;;23.20;99.90;;;;;;5011238;28;20034;-37
2023/08/19 11:30:18;;;;;;;3.72;2.15;;;23.20;99.90;;;;;;5011165;28;20022;-39
2023/08/19 11:32:46;;;;;;;3.17;2.13;;;23.20;99.90;;;;;;5011327;28;20022;-40
2023/08/19 11:35:12;;;;;;;3.63;1.90;;;23.20;99.90;;;;;;5011330;28;20106;-38
2023/08/19 11:37:42;;;;;;;4.45;2.08;;;23.20;99.90;;;;;;5011149;28;20037;-41
2023/08/19 11:40:08;;;;;;;2.45;2.10;;;23.20;99.90;;;;;;5011055;28;20022;-47
2023/08/19 11:42:34;;;;;;;2.10;1.80;;;23.20;99.90;;;;;;4993472;28;20029;-46
2023/08/19 11:45:00;;;;;;;5.20;2.60;;;23.20;99.90;;;;;;5011171;28;20463;-44
2023/08/19 11:47:25;;;;;;;3.33;2.00;;;23.20;99.90;;;;;;5010982;28;20041;-41
2023/08/19 11:49:54;;;;;;;3.70;1.90;;;23.20;99.90;;;;;;5010873;28;20029;-41
2023/08/19 11:52:20;;;;;;;2.92;2.00;;;23.20;99.90;;;;;;5011692;28;20080;-41
2023/08/19 11:55:08;;;;;;;3.95;2.08;;;23.20;99.90;;;;;;5014819;28;20134;-39
2023/08/19 11:57:37;;;;;;;3.65;2.22;;;23.20;99.90;;;;;;5014728;28;20048;-39
2023/08/19 12:00:08;;;;;;;3.55;2.15;;;23.20;99.90;;;;;;5014469;28;20429;-41
2023/08/19 12:02:34;;;;;;;3.70;2.00;;;23.20;99.90;;;;;;5014686;28;20022;-40
2023/08/19 12:04:59;;;;;;;2.10;1.90;;;23.20;99.90;;;;;;5014631;28;20471;-42
2023/08/19 12:07:29;;;;;;;3.17;2.10;;;23.20;99.90;;;;;;5014609;28;20387;-40
2023/08/19 12:09:58;;;;;;;3.47;1.80;;;23.20;99.90;;;;;;5014314;28;20056;-40
2023/08/19 12:12:25;;;;;;;3.80;2.10;;;23.20;99.90;;;;;;4996750;28;20033;-41
2023/08/19 12:14:51;;;;;;;3.25;1.88;;;23.20;99.90;;;;;;5014387;28;20032;-39
2023/08/19 12:17:17;;;;;;;3.83;1.95;;;23.30;99.90;;;;;;5014507;28;20018;-40
2023/08/19 12:19:45;;;;;;;2.75;1.85;;;23.30;99.90;;;;;;5014169;28;20038;-40
2023/08/19 12:22:10;;;;;;;4.05;2.10;;;23.30;99.90;;;;;;5014342;28;20030;-41
2023/08/19 12:24:36;;;;;;;3.88;2.00;;;23.30;99.90;;;;;;5014187;28;20032;-41
2023/08/19 12:27:03;;;;;;;2.63;2.20;;;23.30;99.90;;;;;;5014454;28;20022;-39
2023/08/19 12:29:29;;;;;;;2.42;1.85;;;23.30;99.90;;;;;;5013951;28;20455;-41
2023/08/19 12:31:54;;;;;;;3.65;2.25;;;23.30;99.90;;;;;;5014314;28;20088;-41
2023/08/19 12:34:20;;;;;;;2.28;2.00;;;23.30;99.90;;;;;;4996748;28;20430;-41
2023/08/19 12:36:46;;;;;;;2.65;2.03;;;23.30;99.90;;;;;;5013846;28;20056;-44
2023/08/19 12:39:12;;;;;;;2.47;1.90;;;23.30;99.90;;;;;;5013701;28;20033;-40
2023/08/19 12:41:39;;;;;;;4.72;2.00;;;23.30;99.90;;;;;;4996177;28;20025;-37
2023/08/19 12:44:04;;;;;;;4.00;2.22;;;23.30;99.90;;;;;;5013955;28;20466;-43
2023/08/19 12:46:39;;;;;;;2.35;1.90;;;23.30;99.90;;;;;;5013785;28;20057;-39
2023/08/19 12:49:05;;;;;;;4.55;2.00;;;23.30;99.90;;;;;;5013641;28;20451;-42